createdAt,value
2022-11-24T00:02:01.917Z,66.50
2022-11-24T00:04:06.308Z,66.30
2022-11-24T00:06:11.326Z,65.80
2022-11-24T00:08:14.887Z,66.80
2022-11-24T00:10:17.833Z,65.40
2022-11-24T00:12:20.710Z,66.40
2022-11-24T00:14:23.562Z,65.90
2022-11-24T00:16:29.199Z,61.00
2022-11-24T00:18:32.125Z,59.80
2022-11-24T00:20:34.934Z,57.50
2022-11-24T00:22:37.714Z,69.50
2022-11-24T00:24:40.742Z,69.50
2022-11-24T00:26:43.528Z,71.20
2022-11-24T00:28:48.209Z,54.00
2022-11-24T00:30:51.004Z,68.40
2022-11-24T00:32:53.845Z,69.50
2022-11-24T00:34:56.696Z,65.00
2022-11-24T00:36:59.626Z,64.50
2022-11-24T00:39:10.352Z,62.80
2022-11-24T00:41:13.979Z,73.10
2022-11-24T00:43:16.832Z,62.40
2022-11-24T00:45:19.642Z,55.50
2022-11-24T00:47:22.507Z,66.70
2022-11-24T00:49:25.412Z,74.10
2022-11-24T00:51:30.421Z,55.90
2022-11-24T00:53:33.944Z,63.80
2022-11-24T00:55:36.762Z,65.60
2022-11-24T00:57:39.496Z,68.30
2022-11-24T00:59:42.400Z,69.30
2022-11-24T01:01:45.366Z,55.10
2022-11-24T01:03:48.646Z,54.20
2022-11-24T01:05:51.436Z,60.70
2022-11-24T01:07:54.239Z,52.40
2022-11-24T01:09:57.196Z,55.00
2022-11-24T01:12:04.198Z,42.30
2022-11-24T01:14:07.076Z,52.60
2022-11-24T01:16:23.968Z,61.20
2022-11-24T01:18:27.450Z,61.80
2022-11-24T01:20:30.796Z,58.90
2022-11-24T01:22:35.081Z,57.90
2022-11-24T01:24:37.858Z,61.30
2022-11-24T01:26:40.791Z,56.70
2022-11-24T01:28:47.100Z,61.10
2022-11-24T01:31:00.256Z,56.90
2022-11-24T01:33:03.187Z,58.30
2022-11-24T01:35:07.052Z,58.40
2022-11-24T01:37:10.030Z,56.20
2022-11-24T01:39:13.573Z,51.20
2022-11-24T01:41:27.368Z,59.00
2022-11-24T01:43:30.358Z,58.80
2022-11-24T01:45:40.813Z,54.10
2022-11-24T01:47:44.443Z,58.60
2022-11-24T01:49:51.760Z,63.20
2022-11-24T01:52:20.051Z,56.10
2022-11-24T01:54:28.528Z,51.30
2022-11-24T01:56:33.648Z,46.80
2022-11-24T01:58:38.074Z,49.30
2022-11-24T02:00:44.234Z,49.10
2022-11-24T02:02:47.196Z,54.00
2022-11-24T02:04:51.123Z,53.60
2022-11-24T02:06:57.737Z,47.30
2022-11-24T02:09:07.390Z,43.30
2022-11-24T02:11:10.301Z,46.70
2022-11-24T02:13:14.945Z,43.50
2022-11-24T02:15:18.892Z,42.30
2022-11-24T02:17:22.457Z,49.90
2022-11-24T02:19:40.323Z,46.20
2022-11-24T02:21:43.267Z,50.80
2022-11-24T02:24:22.855Z,52.20
2022-11-24T02:26:41.432Z,49.20
2022-11-24T02:28:44.471Z,53.10
2022-11-24T02:30:48.594Z,49.00
2022-11-24T02:32:52.684Z,47.90
2022-11-24T02:35:04.255Z,52.20
2022-11-24T02:37:07.427Z,49.40
2022-11-24T02:39:15.286Z,47.60
2022-11-24T02:41:21.745Z,49.50
2022-11-24T02:43:24.619Z,48.90
2022-11-24T02:45:28.670Z,46.00
2022-11-24T02:47:31.561Z,51.90
2022-11-24T02:49:34.446Z,49.40
2022-11-24T02:51:37.259Z,49.70
2022-11-24T02:53:40.185Z,48.90
2022-11-24T02:55:42.979Z,42.90
2022-11-24T02:57:46.119Z,40.70
2022-11-24T02:59:49.007Z,42.40
2022-11-24T03:01:51.997Z,49.30
2022-11-24T03:03:54.760Z,46.90
2022-11-24T03:05:57.597Z,38.70
2022-11-24T03:08:00.362Z,38.60
2022-11-24T03:10:03.936Z,41.30
2022-11-24T03:12:07.163Z,33.90
2022-11-24T03:14:10.248Z,43.30
2022-11-24T03:16:13.247Z,39.50
2022-11-24T03:18:16.117Z,37.50
2022-11-24T03:20:19.028Z,41.60
2022-11-24T03:22:21.787Z,43.20
2022-11-24T03:24:24.672Z,39.90
2022-11-24T03:26:28.038Z,40.90
2022-11-24T03:28:30.761Z,42.60
2022-11-24T03:30:33.577Z,41.90
2022-11-24T03:32:36.390Z,39.50
2022-11-24T03:34:39.217Z,44.70
2022-11-24T03:36:42.108Z,47.40
2022-11-24T03:38:45.790Z,46.20
2022-11-24T03:40:48.575Z,43.30
2022-11-24T03:42:51.359Z,42.10
2022-11-24T03:44:54.135Z,45.30
2022-11-24T03:46:56.905Z,42.70
2022-11-24T03:48:59.829Z,44.50
2022-11-24T03:51:03.342Z,45.80
2022-11-24T03:53:06.094Z,38.50
2022-11-24T03:55:08.967Z,41.60
2022-11-24T03:57:11.805Z,40.30
2022-11-24T03:59:14.866Z,40.50
2022-11-24T04:01:18.647Z,38.50
2022-11-24T04:03:21.788Z,41.00
2022-11-24T04:05:25.438Z,37.10
2022-11-24T04:07:28.329Z,41.20
2022-11-24T04:09:31.163Z,39.00
2022-11-24T04:11:52.922Z,41.00
2022-11-24T04:13:55.746Z,45.20
2022-11-24T04:15:58.666Z,38.20
2022-11-24T04:18:01.440Z,42.70
2022-11-24T04:20:05.444Z,39.40
2022-11-24T04:22:09.066Z,39.50
2022-11-24T04:24:11.995Z,36.20
2022-11-24T04:26:14.903Z,42.20
2022-11-24T04:28:17.707Z,43.10
2022-11-24T04:30:21.679Z,16.20
2022-11-24T04:32:24.509Z,38.90
2022-11-24T04:34:27.313Z,35.20
2022-11-24T04:36:30.182Z,53.70
2022-11-24T04:39:24.793Z,62.10
2022-11-24T04:40:55.834Z,49.20
2022-11-24T04:42:58.693Z,47.40
2022-11-24T04:45:01.651Z,43.20
2022-11-24T04:47:04.884Z,51.20
2022-11-24T04:49:11.758Z,43.30
2022-11-24T04:51:15.592Z,48.50
2022-11-24T04:53:18.430Z,48.10
2022-11-24T04:55:21.362Z,47.70
2022-11-24T04:57:26.287Z,47.90
2022-11-24T04:59:29.141Z,47.60
2022-11-24T05:01:32.801Z,50.30
2022-11-24T05:03:36.965Z,54.20
2022-11-24T05:05:39.875Z,47.10
2022-11-24T05:07:42.735Z,46.90
2022-11-24T05:10:05.060Z,50.40
2022-11-24T05:12:07.881Z,45.50
2022-11-24T05:14:10.723Z,51.00
2022-11-24T05:16:13.580Z,50.90
2022-11-24T05:18:16.712Z,49.50
2022-11-24T05:20:20.308Z,46.70
2022-11-24T05:22:23.201Z,49.60
2022-11-24T05:24:26.037Z,47.20
2022-11-24T05:26:29.065Z,52.50
2022-11-24T05:28:32.484Z,47.20
2022-11-24T05:30:37.870Z,49.80
2022-11-24T05:32:40.807Z,48.10
2022-11-24T05:34:43.657Z,50.10
2022-11-24T05:36:56.515Z,49.60
2022-11-24T05:38:59.343Z,48.00
2022-11-24T05:41:03.740Z,45.60
2022-11-24T05:43:15.416Z,49.10
2022-11-24T05:45:20.413Z,48.40
2022-11-24T05:47:23.923Z,45.80
2022-11-24T05:49:26.677Z,49.00
2022-11-24T05:51:30.616Z,42.40
2022-11-24T05:53:33.418Z,43.10
2022-11-24T05:55:37.102Z,46.50
2022-11-24T05:57:39.903Z,47.20
2022-11-24T05:59:42.715Z,44.30
2022-11-24T06:01:45.608Z,43.30
2022-11-24T06:03:48.434Z,32.10
2022-11-24T06:05:51.445Z,45.40
2022-11-24T06:07:54.996Z,43.00
2022-11-24T06:09:57.807Z,40.60
2022-11-24T06:12:00.581Z,48.00
2022-11-24T06:14:08.236Z,49.10
2022-11-24T06:16:14.921Z,43.30
2022-11-24T06:18:17.821Z,43.10
2022-11-24T06:20:20.642Z,40.10
2022-11-24T06:25:10.889Z,43.30
2022-11-24T06:27:14.252Z,42.20
2022-11-24T06:29:17.075Z,40.00
2022-11-24T06:31:19.952Z,41.50
2022-11-24T06:33:22.882Z,40.50
2022-11-24T06:35:26.012Z,50.30
2022-11-24T06:37:28.977Z,51.50
2022-11-24T06:39:31.983Z,41.90
2022-11-24T06:41:34.844Z,46.50
2022-11-24T06:43:37.918Z,42.60
2022-11-24T06:45:40.801Z,46.90
2022-11-24T06:47:43.672Z,45.70
2022-11-24T06:49:46.564Z,53.00
2022-11-24T06:51:49.358Z,44.50
2022-11-24T06:53:52.258Z,47.50
2022-11-24T06:55:59.232Z,42.30
2022-11-24T06:58:02.252Z,46.00
2022-11-24T07:00:08.010Z,46.20
2022-11-24T07:02:10.953Z,40.70
2022-11-24T07:04:15.060Z,50.40
2022-11-24T07:06:19.712Z,47.80
2022-11-24T07:08:22.927Z,48.90
2022-11-24T07:10:25.847Z,51.90
2022-11-24T07:12:29.396Z,55.60
2022-11-24T07:14:32.493Z,48.50
2022-11-24T07:16:36.056Z,60.40
2022-11-24T07:18:38.911Z,26.20
2022-11-24T07:20:41.743Z,51.00
2022-11-24T07:22:44.722Z,52.30
2022-11-24T07:24:47.601Z,47.40
2022-11-24T07:26:50.637Z,66.70
2022-11-24T07:28:53.625Z,46.90
2022-11-24T07:30:57.014Z,53.10
2022-11-24T07:33:03.821Z,55.90
2022-11-24T07:35:06.949Z,53.40
2022-11-24T07:37:09.785Z,52.10
2022-11-24T07:39:12.837Z,49.40
2022-11-24T07:41:17.568Z,61.60
2022-11-24T07:43:20.511Z,59.00
2022-11-24T07:45:23.314Z,61.20
2022-11-24T07:47:26.097Z,56.60
2022-11-24T07:49:29.000Z,48.80
2022-11-24T07:51:31.925Z,49.20
2022-11-24T07:53:35.511Z,53.70
2022-11-24T07:55:38.659Z,58.30
2022-11-24T07:57:41.499Z,53.50
2022-11-24T07:59:44.283Z,54.60
2022-11-24T08:01:47.576Z,57.00
2022-11-24T08:03:50.511Z,56.00
2022-11-24T08:08:20.476Z,50.80
2022-11-24T08:10:23.396Z,58.60
2022-11-24T08:12:26.164Z,53.70
2022-11-24T08:14:29.063Z,58.00
2022-11-24T08:16:32.386Z,57.00
2022-11-24T08:18:36.474Z,49.80
2022-11-24T08:20:39.369Z,53.80
2022-11-24T08:22:42.743Z,54.80
2022-11-24T08:24:48.541Z,36.10
2022-11-24T08:26:51.369Z,57.20
2022-11-24T08:28:56.810Z,55.90
2022-11-24T08:31:09.190Z,38.70
2022-11-24T08:33:12.918Z,57.10
2022-11-24T08:35:15.857Z,51.90
2022-11-24T08:37:18.935Z,58.10
2022-11-24T08:39:21.795Z,61.10
2022-11-24T08:41:26.442Z,75.80
2022-11-24T08:43:29.372Z,66.70
2022-11-24T08:45:35.463Z,72.60
2022-11-24T08:47:42.917Z,67.90
2022-11-24T08:49:45.732Z,73.70
2022-11-24T08:51:50.880Z,67.60
2022-11-24T08:53:58.849Z,40.60
2022-11-24T08:56:02.746Z,68.90
2022-11-24T08:58:05.619Z,60.70
2022-11-24T09:00:09.162Z,68.60
2022-11-24T09:02:13.418Z,60.40
2022-11-24T09:04:16.380Z,52.30
2022-11-24T09:06:25.186Z,68.90
2022-11-24T09:08:29.855Z,55.90
2022-11-24T09:10:32.732Z,81.20
2022-11-24T09:12:35.673Z,60.80
2022-11-24T09:14:38.592Z,71.20
2022-11-24T09:16:41.625Z,68.80
2022-11-24T09:18:44.970Z,64.70
2022-11-24T09:20:48.149Z,65.90
2022-11-24T09:22:51.068Z,68.00
2022-11-24T09:24:53.818Z,72.60
2022-11-24T09:26:57.167Z,75.80
2022-11-24T09:29:01.892Z,77.90
2022-11-24T09:31:06.855Z,57.70
2022-11-24T09:33:09.860Z,74.70
2022-11-24T09:35:12.697Z,60.20
2022-11-24T09:37:15.710Z,67.40
2022-11-24T09:39:18.663Z,66.40
2022-11-24T09:41:34.298Z,69.20
2022-11-24T09:43:46.373Z,59.90
2022-11-24T09:46:06.033Z,79.80
2022-11-24T09:48:24.241Z,61.20
2022-11-24T09:50:34.331Z,68.60
2022-11-24T09:53:03.880Z,66.30
2022-11-24T09:55:24.049Z,62.70
2022-11-24T09:57:34.258Z,67.00
2022-11-24T09:59:42.116Z,68.70
2022-11-24T10:01:47.943Z,78.80
2022-11-24T10:03:52.759Z,67.10
2022-11-24T10:05:56.027Z,73.50
2022-11-24T10:08:23.168Z,64.50
2022-11-24T10:10:53.632Z,69.40
2022-11-24T10:13:02.241Z,63.40
2022-11-24T10:16:02.897Z,68.50
2022-11-24T10:18:52.448Z,67.60
2022-11-24T10:21:47.010Z,81.80
2022-11-24T10:24:22.548Z,70.30
2022-11-24T10:26:36.862Z,65.80
2022-11-24T10:28:52.783Z,52.30
2022-11-24T10:31:16.551Z,57.60
2022-11-24T10:33:28.774Z,62.30
2022-11-24T10:35:47.067Z,65.30
2022-11-24T10:37:58.131Z,65.10
2022-11-24T10:40:33.396Z,63.90
2022-11-24T10:42:37.485Z,59.60
2022-11-24T10:44:42.939Z,65.80
2022-11-24T10:46:46.079Z,64.80
2022-11-24T10:48:57.938Z,73.30
2022-11-24T10:51:35.590Z,70.70
2022-11-24T10:53:42.177Z,75.00
2022-11-24T10:55:54.170Z,72.50
2022-11-24T10:58:15.549Z,76.20
2022-11-24T11:00:18.309Z,68.80
2022-11-24T11:03:16.797Z,71.30
2022-11-24T11:05:32.407Z,64.30
2022-11-24T11:07:35.352Z,61.50
2022-11-24T11:09:38.296Z,57.50
2022-11-24T11:11:41.978Z,54.10
2022-11-24T11:14:03.082Z,58.90
2022-11-24T11:16:23.650Z,59.70
2022-11-24T11:18:36.314Z,63.10
2022-11-24T11:20:39.108Z,57.10
2022-11-24T11:22:45.131Z,58.60
2022-11-24T11:25:01.183Z,57.30
2022-11-24T11:27:16.359Z,58.80
2022-11-24T11:34:28.615Z,58.30
2022-11-24T11:36:33.190Z,71.30
2022-11-24T11:38:39.767Z,67.00
2022-11-24T11:40:43.937Z,69.00
2022-11-24T11:43:03.938Z,64.20
2022-11-24T11:45:18.434Z,68.10
2022-11-24T11:47:29.439Z,71.10
2022-11-24T11:49:39.493Z,71.40
2022-11-24T11:51:49.320Z,70.60
2022-11-24T11:54:11.088Z,71.20
2022-11-24T11:56:23.307Z,69.20
2022-11-24T11:59:00.802Z,64.30
2022-11-24T12:01:26.098Z,72.50
2022-11-24T12:03:47.349Z,68.00
2022-11-24T12:06:34.621Z,67.90
2022-11-24T12:09:21.505Z,53.40
2022-11-24T12:11:35.336Z,76.40
2022-11-24T12:13:53.033Z,68.70
2022-11-24T12:15:59.018Z,76.10
2022-11-24T12:18:56.673Z,92.90
2022-11-24T12:21:25.946Z,84.20
2022-11-24T12:23:38.391Z,72.60
2022-11-24T12:25:47.595Z,90.80
2022-11-24T12:28:19.293Z,93.60
2022-11-24T12:30:23.024Z,101.40
2022-11-24T12:33:03.693Z,113.90
2022-11-24T12:35:06.437Z,90.20
2022-11-24T12:37:47.345Z,72.40
2022-11-24T12:40:01.797Z,80.70
2022-11-24T12:42:43.937Z,80.90
2022-11-24T12:45:13.620Z,81.60
2022-11-24T12:47:40.663Z,98.80
2022-11-24T12:50:13.005Z,91.10
2022-11-24T12:52:36.911Z,89.80
2022-11-24T12:54:41.244Z,78.90
2022-11-24T12:57:09.269Z,81.90
2022-11-24T12:59:27.936Z,80.90
2022-11-24T13:01:37.725Z,91.40
2022-11-24T13:03:46.398Z,93.30
2022-11-24T13:06:07.797Z,97.80
2022-11-24T13:08:11.171Z,92.80
2022-11-24T13:13:06.320Z,92.00
2022-11-24T13:15:43.333Z,93.40
2022-11-24T13:18:01.157Z,94.10
2022-11-24T13:20:37.328Z,101.90
2022-11-24T13:22:45.483Z,102.10
2022-11-24T13:25:15.001Z,113.40
2022-11-24T13:27:24.502Z,128.50
2022-11-24T13:29:27.192Z,116.70
2022-11-24T13:31:30.240Z,120.00
2022-11-24T13:33:34.098Z,111.80
2022-11-24T13:35:37.740Z,127.10
2022-11-24T13:37:40.559Z,120.50
2022-11-24T13:40:03.366Z,119.90
2022-11-24T13:42:06.273Z,116.80
2022-11-24T13:44:24.301Z,104.40
2022-11-24T13:47:00.201Z,91.10
2022-11-24T13:49:14.563Z,98.60
2022-11-24T13:51:24.052Z,87.60
2022-11-24T13:53:47.698Z,97.30
2022-11-24T13:55:59.771Z,89.90
2022-11-24T13:58:31.767Z,75.20
2022-11-24T14:00:58.451Z,80.20
2022-11-24T14:03:06.883Z,69.60
2022-11-24T14:05:14.699Z,66.20
2022-11-24T14:07:17.729Z,74.80
2022-11-24T14:09:46.618Z,67.80
2022-11-24T14:12:16.306Z,62.00
2022-11-24T14:14:23.042Z,71.40
2022-11-24T14:16:26.115Z,65.50
2022-11-24T14:18:29.303Z,72.20
2022-11-24T14:20:32.060Z,72.60
2022-11-24T14:22:39.408Z,71.20
2022-11-24T14:24:45.482Z,69.70
2022-11-24T14:26:49.166Z,64.50
2022-11-24T14:28:53.848Z,71.30
2022-11-24T14:31:08.703Z,79.00
2022-11-24T14:33:12.876Z,76.50
2022-11-24T14:35:24.176Z,73.50
2022-11-24T14:37:27.044Z,69.10
2022-11-24T14:39:30.340Z,73.00
2022-11-24T14:41:34.042Z,70.80
2022-11-24T14:43:36.923Z,80.60
2022-11-24T14:45:48.311Z,76.30
2022-11-24T14:47:51.131Z,81.40
2022-11-24T14:49:56.058Z,79.10
2022-11-24T14:52:03.216Z,69.20
2022-11-24T14:56:39.593Z,70.40
2022-11-24T14:58:42.710Z,75.60
2022-11-24T15:00:45.686Z,70.20
2022-11-24T15:02:54.269Z,67.90
2022-11-24T15:05:03.383Z,71.70
2022-11-24T15:07:23.869Z,87.20
2022-11-24T15:09:50.531Z,73.10
2022-11-24T15:11:54.713Z,87.60
2022-11-24T15:13:57.452Z,64.40
2022-11-24T15:16:03.935Z,77.70
2022-11-24T15:18:25.888Z,77.20
2022-11-24T15:20:35.161Z,73.80
2022-11-24T15:22:44.287Z,67.40
2022-11-24T15:24:53.423Z,60.20
2022-11-24T15:27:00.840Z,57.40
2022-11-24T15:29:03.648Z,66.70
2022-11-24T15:31:10.888Z,66.50
2022-11-24T15:33:18.325Z,66.70
2022-11-24T15:35:22.964Z,60.60
2022-11-24T15:37:28.863Z,66.70
2022-11-24T15:39:35.700Z,55.70
2022-11-24T15:41:38.478Z,70.50
2022-11-24T15:43:41.471Z,77.60
2022-11-24T15:45:44.278Z,144.30
2022-11-24T15:47:47.334Z,187.80
2022-11-24T15:49:50.219Z,166.00
2022-11-24T15:51:53.031Z,142.40
2022-11-24T15:54:14.045Z,93.50
2022-11-24T15:56:25.576Z,83.80
2022-11-24T15:58:28.399Z,79.40
2022-11-24T16:00:32.846Z,88.30
2022-11-24T16:02:35.647Z,98.00
2022-11-24T16:04:41.666Z,82.40
2022-11-24T16:06:44.528Z,83.30
2022-11-24T16:08:47.822Z,74.00
2022-11-24T16:10:51.357Z,77.00
2022-11-24T16:12:54.098Z,72.90
2022-11-24T16:14:56.978Z,62.60
2022-11-24T16:16:59.730Z,70.20
2022-11-24T16:19:03.037Z,55.10
2022-11-24T16:21:07.259Z,76.50
2022-11-24T16:23:10.036Z,81.30
2022-11-24T16:25:13.219Z,75.20
2022-11-24T16:27:16.039Z,72.40
2022-11-24T16:29:21.051Z,79.50
2022-11-24T16:31:23.935Z,68.10
2022-11-24T16:33:29.000Z,74.70
2022-11-24T16:35:31.879Z,72.80
2022-11-24T16:37:34.754Z,66.60
2022-11-24T16:39:37.507Z,63.90
2022-11-24T16:41:40.857Z,75.70
2022-11-24T16:53:24.925Z,68.10
2022-11-24T16:55:27.670Z,69.30
2022-11-24T16:57:30.461Z,71.40
2022-11-24T16:59:33.973Z,61.00
2022-11-24T17:01:37.334Z,59.60
2022-11-24T17:03:41.115Z,57.30
2022-11-24T17:05:44.007Z,62.10
2022-11-24T17:07:46.844Z,59.60
2022-11-24T17:09:49.678Z,58.30
2022-11-24T17:11:52.564Z,63.90
2022-11-24T17:13:57.931Z,67.60
2022-11-24T17:16:08.916Z,65.60
2022-11-24T17:18:28.365Z,69.70
2022-11-24T17:20:31.644Z,65.70
2022-11-24T17:22:34.465Z,62.90
2022-11-24T17:24:37.293Z,61.30
2022-11-24T17:26:44.667Z,62.70
2022-11-24T17:28:50.475Z,76.60
2022-11-24T17:30:53.312Z,71.20
2022-11-24T17:32:57.336Z,87.30
2022-11-24T17:35:00.141Z,86.50
2022-11-24T17:37:03.675Z,76.30
2022-11-24T17:39:07.368Z,85.20
2022-11-24T17:41:11.316Z,91.20
2022-11-24T17:43:14.138Z,89.00
2022-11-24T17:45:17.222Z,87.90
2022-11-24T17:47:19.989Z,93.70
2022-11-24T17:49:23.388Z,95.20
2022-11-24T17:51:27.176Z,98.90
2022-11-24T17:53:30.941Z,94.60
2022-11-24T17:55:33.744Z,87.20
2022-11-24T17:57:36.708Z,94.70
2022-11-24T17:59:39.476Z,105.00
2022-11-24T18:01:42.458Z,101.90
2022-11-24T18:03:48.985Z,99.70
2022-11-24T18:05:56.058Z,102.70
2022-11-24T18:07:59.921Z,98.60
2022-11-24T18:10:03.372Z,97.30
2022-11-24T18:12:07.317Z,98.90
2022-11-24T18:14:10.199Z,91.70
2022-11-24T18:16:13.956Z,92.90
2022-11-24T18:18:16.885Z,92.50
2022-11-24T18:20:19.782Z,101.90
2022-11-24T18:22:43.017Z,96.20
2022-11-24T18:24:45.525Z,97.80
2022-11-24T18:26:48.278Z,103.10
2022-11-24T18:28:51.333Z,104.40
2022-11-24T18:31:01.275Z,92.20
2022-11-24T18:33:04.090Z,108.50
2022-11-24T18:35:07.343Z,104.20
2022-11-24T18:37:13.510Z,111.20
2022-11-24T18:39:18.219Z,109.40
2022-11-24T18:41:22.328Z,94.40
2022-11-24T18:43:27.511Z,92.10
2022-11-24T18:45:30.655Z,112.10
2022-11-24T18:47:33.644Z,106.60
2022-11-24T18:49:36.490Z,101.30
2022-11-24T18:51:39.284Z,102.10
2022-11-24T18:53:44.060Z,105.00
2022-11-24T18:56:05.404Z,103.40
2022-11-24T18:58:08.227Z,99.00
2022-11-24T19:00:11.695Z,98.20
2022-11-24T19:02:14.637Z,93.20
2022-11-24T19:04:17.545Z,93.80
2022-11-24T19:06:29.048Z,106.30
2022-11-24T19:08:32.054Z,109.70
2022-11-24T19:10:39.170Z,102.30
2022-11-24T19:12:42.634Z,100.10
2022-11-24T19:14:45.544Z,90.90
2022-11-24T19:16:48.529Z,87.00
2022-11-24T19:18:54.326Z,83.60
2022-11-24T19:20:58.285Z,87.30
2022-11-24T19:23:01.262Z,80.90
2022-11-24T19:25:04.422Z,91.60
2022-11-24T19:27:08.006Z,99.90
2022-11-24T19:29:11.342Z,101.50
2022-11-24T19:31:15.958Z,91.90
2022-11-24T19:33:19.057Z,91.00
2022-11-24T19:35:21.978Z,90.70
2022-11-24T19:37:24.746Z,87.90
2022-11-24T19:39:27.904Z,83.70
2022-11-24T19:41:32.087Z,92.80
2022-11-24T19:43:35.217Z,83.50
2022-11-24T19:45:44.025Z,87.90
2022-11-24T19:47:46.959Z,107.80
2022-11-24T19:49:49.856Z,110.90
2022-11-24T19:51:53.574Z,102.60
2022-11-24T19:53:57.029Z,100.00
2022-11-24T19:56:07.576Z,103.80
2022-11-24T19:58:10.384Z,100.50
2022-11-24T20:00:14.709Z,108.20
2022-11-24T20:02:18.362Z,102.30
2022-11-24T20:04:21.524Z,111.00
2022-11-24T20:06:25.878Z,120.60
2022-11-24T20:08:31.231Z,120.10
2022-11-24T20:10:34.015Z,111.70
2022-11-24T20:12:36.782Z,102.60
2022-11-24T20:14:39.848Z,100.50
2022-11-24T20:16:43.452Z,95.80
2022-11-24T20:18:47.726Z,92.40
2022-11-24T20:20:50.573Z,90.30
2022-11-24T20:22:53.582Z,92.70
2022-11-24T20:24:56.451Z,97.40
2022-11-24T20:27:00.157Z,95.70
2022-11-24T20:29:04.091Z,99.90
2022-11-24T20:31:13.177Z,101.50
2022-11-24T20:33:16.139Z,96.80
2022-11-24T20:35:19.073Z,102.10
2022-11-24T20:37:22.727Z,102.70
2022-11-24T20:39:27.849Z,89.40
2022-11-24T20:41:34.065Z,88.60
2022-11-24T20:43:38.224Z,99.60
2022-11-24T20:45:41.159Z,98.10
2022-11-24T20:47:43.991Z,87.60
2022-11-24T20:49:46.839Z,85.00
2022-11-24T20:51:54.507Z,84.80
2022-11-24T20:54:00.698Z,93.10
2022-11-24T20:56:26.431Z,101.30
2022-11-24T20:58:29.286Z,98.90
2022-11-24T21:00:32.115Z,90.60
2022-11-24T21:02:35.030Z,96.30
2022-11-24T21:04:38.349Z,92.10
2022-11-24T21:06:41.737Z,89.80
2022-11-24T21:08:44.790Z,93.80
2022-11-24T21:10:58.825Z,96.60
2022-11-24T21:13:01.687Z,94.00
2022-11-24T21:15:07.676Z,105.00
2022-11-24T21:17:10.730Z,96.50
2022-11-24T21:19:15.050Z,96.70
2022-11-24T21:21:20.068Z,81.10
2022-11-24T21:23:22.848Z,86.30
2022-11-24T21:25:25.688Z,88.70
2022-11-24T21:27:28.863Z,85.10
2022-11-24T21:29:31.695Z,80.60
2022-11-24T21:31:37.146Z,82.50
2022-11-24T21:34:00.230Z,84.80
2022-11-24T21:36:04.939Z,95.70
2022-11-24T21:38:07.791Z,81.90
2022-11-24T21:40:11.151Z,84.50
2022-11-24T21:42:13.974Z,77.90
2022-11-24T21:44:16.855Z,76.10
2022-11-24T21:46:19.840Z,77.30
2022-11-24T21:48:22.689Z,77.80
2022-11-24T21:50:25.698Z,68.80
2022-11-24T21:52:28.472Z,75.20
2022-11-24T21:54:31.200Z,79.60
2022-11-24T21:56:34.056Z,77.30
2022-11-24T21:58:36.815Z,77.20
2022-11-24T22:00:39.720Z,75.10
2022-11-24T22:02:57.805Z,79.30
2022-11-24T22:06:35.143Z,72.00
2022-11-24T22:08:38.271Z,77.10
2022-11-24T22:10:41.026Z,66.70
2022-11-24T22:12:43.919Z,76.20
2022-11-24T22:14:46.782Z,80.20
2022-11-24T22:16:49.673Z,80.20
2022-11-24T22:18:52.825Z,72.40
2022-11-24T22:20:56.364Z,71.50
2022-11-24T22:22:59.179Z,77.00
2022-11-24T22:25:01.947Z,73.80
2022-11-24T22:27:04.771Z,75.50
2022-11-24T22:29:08.639Z,83.40
2022-11-24T22:31:14.591Z,86.20
2022-11-24T22:33:17.407Z,77.80
2022-11-24T22:35:20.239Z,83.80
2022-11-24T22:37:23.123Z,80.80
2022-11-24T22:39:25.899Z,86.50
2022-11-24T22:41:30.032Z,89.40
2022-11-24T22:43:34.464Z,92.90
2022-11-24T22:45:37.407Z,94.20
2022-11-24T22:47:40.239Z,85.20
2022-11-24T22:49:43.008Z,86.00
2022-11-24T22:51:45.794Z,78.50
2022-11-24T22:53:50.576Z,84.90
2022-11-24T22:55:53.353Z,84.40
2022-11-24T22:57:57.201Z,66.90
2022-11-24T23:00:00.083Z,67.10
2022-11-24T23:02:02.856Z,56.40
2022-11-24T23:04:05.730Z,63.70
2022-11-24T23:06:12.278Z,58.40
2022-11-24T23:08:15.093Z,59.70
2022-11-24T23:10:18.142Z,59.30
2022-11-24T23:12:20.923Z,59.20
2022-11-24T23:14:23.703Z,51.20
2022-11-24T23:16:26.792Z,45.70
2022-11-24T23:18:30.151Z,44.30
2022-11-24T23:20:35.220Z,48.40
2022-11-24T23:22:38.072Z,49.40
2022-11-24T23:24:41.029Z,41.80
2022-11-24T23:26:43.852Z,45.10
2022-11-24T23:28:47.177Z,57.80
2022-11-24T23:30:49.973Z,66.20
2022-11-24T23:32:52.790Z,49.50
2022-11-24T23:34:55.585Z,48.00
2022-11-24T23:36:58.306Z,43.70
2022-11-24T23:39:06.577Z,49.10
2022-11-24T23:41:12.455Z,48.70
2022-11-24T23:43:15.266Z,49.30
2022-11-24T23:45:18.013Z,44.90
2022-11-24T23:47:20.821Z,48.80
2022-11-24T23:49:23.583Z,51.10
2022-11-24T23:51:29.123Z,53.50
2022-11-24T23:53:35.737Z,48.50
2022-11-24T23:55:38.470Z,44.90
2022-11-24T23:57:41.240Z,44.30
2022-11-24T23:59:44.087Z,49.10
